sensor_id;sensor_type;location;lat;lon;timestamp;P1;durP1;ratioP1;P2;durP2;ratioP2
19024;SDS011;9645;51.448;6.260;2023-05-15T00:00:01;26.53;;;12.57;;
19024;SDS011;9645;51.448;6.260;2023-05-15T00:02:30;26.80;;;12.20;;
19024;SDS011;9645;51.448;6.260;2023-05-15T00:04:59;26.50;;;13.13;;
19024;SDS011;9645;51.448;6.260;2023-05-15T00:07:26;25.70;;;13.10;;
19024;SDS011;9645;51.448;6.260;2023-05-15T00:09:53;24.83;;;12.67;;
19024;SDS011;9645;51.448;6.260;2023-05-15T00:12:20;28.17;;;13.90;;
19024;SDS011;9645;51.448;6.260;2023-05-15T00:14:49;29.80;;;13.20;;
19024;SDS011;9645;51.448;6.260;2023-05-15T00:17:16;23.70;;;12.43;;
19024;SDS011;9645;51.448;6.260;2023-05-15T00:19:44;32.87;;;13.67;;
19024;SDS011;9645;51.448;6.260;2023-05-15T00:22:11;28.57;;;12.97;;
19024;SDS011;9645;51.448;6.260;2023-05-15T00:24:38;28.30;;;13.93;;
19024;SDS011;9645;51.448;6.260;2023-05-15T00:27:05;48.43;;;14.20;;
19024;SDS011;9645;51.448;6.260;2023-05-15T00:29:32;29.50;;;13.17;;
19024;SDS011;9645;51.448;6.260;2023-05-15T00:32:01;31.20;;;13.67;;
19024;SDS011;9645;51.448;6.260;2023-05-15T00:34:28;29.53;;;14.00;;
19024;SDS011;9645;51.448;6.260;2023-05-15T00:36:55;35.53;;;14.50;;
19024;SDS011;9645;51.448;6.260;2023-05-15T00:39:22;31.07;;;13.80;;
19024;SDS011;9645;51.448;6.260;2023-05-15T00:41:49;37.07;;;14.57;;
19024;SDS011;9645;51.448;6.260;2023-05-15T00:44:18;33.93;;;14.13;;
19024;SDS011;9645;51.448;6.260;2023-05-15T00:46:46;34.47;;;14.27;;
19024;SDS011;9645;51.448;6.260;2023-05-15T00:49:15;34.73;;;14.07;;
19024;SDS011;9645;51.448;6.260;2023-05-15T00:51:45;35.57;;;16.40;;
19024;SDS011;9645;51.448;6.260;2023-05-15T00:54:12;37.70;;;15.03;;
19024;SDS011;9645;51.448;6.260;2023-05-15T00:56:39;35.63;;;16.17;;
19024;SDS011;9645;51.448;6.260;2023-05-15T00:59:08;40.80;;;16.63;;
19024;SDS011;9645;51.448;6.260;2023-05-15T01:01:36;42.10;;;17.17;;
19024;SDS011;9645;51.448;6.260;2023-05-15T01:04:03;43.07;;;16.63;;
19024;SDS011;9645;51.448;6.260;2023-05-15T01:06:32;34.27;;;16.33;;
19024;SDS011;9645;51.448;6.260;2023-05-15T01:08:59;45.73;;;16.33;;
19024;SDS011;9645;51.448;6.260;2023-05-15T01:11:28;41.47;;;18.13;;
19024;SDS011;9645;51.448;6.260;2023-05-15T01:14:00;39.50;;;14.97;;
19024;SDS011;9645;51.448;6.260;2023-05-15T01:16:29;40.27;;;15.97;;
19024;SDS011;9645;51.448;6.260;2023-05-15T01:18:56;44.43;;;15.80;;
19024;SDS011;9645;51.448;6.260;2023-05-15T01:21:34;33.90;;;15.40;;
19024;SDS011;9645;51.448;6.260;2023-05-15T01:24:21;37.03;;;17.17;;
19024;SDS011;9645;51.448;6.260;2023-05-15T01:27:06;32.40;;;14.10;;
19024;SDS011;9645;51.448;6.260;2023-05-15T01:29:40;49.23;;;15.73;;
19024;SDS011;9645;51.448;6.260;2023-05-15T01:32:15;36.50;;;15.40;;
19024;SDS011;9645;51.448;6.260;2023-05-15T01:34:47;36.57;;;16.23;;
19024;SDS011;9645;51.448;6.260;2023-05-15T01:37:23;42.50;;;16.30;;
19024;SDS011;9645;51.448;6.260;2023-05-15T01:39:54;38.73;;;15.30;;
19024;SDS011;9645;51.448;6.260;2023-05-15T01:42:29;30.00;;;14.77;;
19024;SDS011;9645;51.448;6.260;2023-05-15T01:44:59;35.35;;;15.98;;
19024;SDS011;9645;51.448;6.260;2023-05-15T01:47:30;38.23;;;16.60;;
19024;SDS011;9645;51.448;6.260;2023-05-15T01:50:03;38.40;;;15.50;;
19024;SDS011;9645;51.448;6.260;2023-05-15T01:52:33;40.87;;;16.20;;
19024;SDS011;9645;51.448;6.260;2023-05-15T01:55:02;40.53;;;15.80;;
19024;SDS011;9645;51.448;6.260;2023-05-15T01:57:32;39.40;;;16.80;;
19024;SDS011;9645;51.448;6.260;2023-05-15T02:00:00;33.50;;;15.63;;
19024;SDS011;9645;51.448;6.260;2023-05-15T02:02:28;47.22;;;15.75;;
19024;SDS011;9645;51.448;6.260;2023-05-15T02:05:01;40.60;;;16.33;;
19024;SDS011;9645;51.448;6.260;2023-05-15T02:07:30;34.10;;;15.50;;
19024;SDS011;9645;51.448;6.260;2023-05-15T02:09:58;42.90;;;16.88;;
19024;SDS011;9645;51.448;6.260;2023-05-15T02:12:27;32.93;;;14.93;;
19024;SDS011;9645;51.448;6.260;2023-05-15T02:14:57;41.38;;;16.85;;
19024;SDS011;9645;51.448;6.260;2023-05-15T02:17:24;44.47;;;16.90;;
19024;SDS011;9645;51.448;6.260;2023-05-15T02:19:52;37.05;;;16.25;;
19024;SDS011;9645;51.448;6.260;2023-05-15T02:22:19;39.58;;;15.00;;
19024;SDS011;9645;51.448;6.260;2023-05-15T02:24:46;33.33;;;15.97;;
19024;SDS011;9645;51.448;6.260;2023-05-15T02:27:16;37.80;;;16.23;;
19024;SDS011;9645;51.448;6.260;2023-05-15T02:29:49;44.57;;;16.67;;
19024;SDS011;9645;51.448;6.260;2023-05-15T02:32:28;37.08;;;16.33;;
19024;SDS011;9645;51.448;6.260;2023-05-15T02:35:03;45.08;;;17.77;;
19024;SDS011;9645;51.448;6.260;2023-05-15T02:37:39;44.47;;;17.10;;
19024;SDS011;9645;51.448;6.260;2023-05-15T02:40:10;34.50;;;15.93;;
19024;SDS011;9645;51.448;6.260;2023-05-15T02:42:40;39.20;;;16.23;;
19024;SDS011;9645;51.448;6.260;2023-05-15T02:45:09;47.63;;;17.48;;
19024;SDS011;9645;51.448;6.260;2023-05-15T02:47:38;34.00;;;15.50;;
19024;SDS011;9645;51.448;6.260;2023-05-15T02:50:06;40.15;;;15.82;;
19024;SDS011;9645;51.448;6.260;2023-05-15T02:52:34;43.20;;;16.90;;
19024;SDS011;9645;51.448;6.260;2023-05-15T02:55:01;37.05;;;15.95;;
19024;SDS011;9645;51.448;6.260;2023-05-15T02:57:28;36.70;;;17.08;;
19024;SDS011;9645;51.448;6.260;2023-05-15T02:59:55;37.55;;;16.60;;
19024;SDS011;9645;51.448;6.260;2023-05-15T03:02:22;37.00;;;16.55;;
19024;SDS011;9645;51.448;6.260;2023-05-15T03:04:50;34.28;;;14.82;;
19024;SDS011;9645;51.448;6.260;2023-05-15T03:07:17;44.05;;;16.40;;
19024;SDS011;9645;51.448;6.260;2023-05-15T03:09:45;47.22;;;16.00;;
19024;SDS011;9645;51.448;6.260;2023-05-15T03:12:12;47.60;;;17.50;;
19024;SDS011;9645;51.448;6.260;2023-05-15T03:14:39;40.22;;;16.92;;
19024;SDS011;9645;51.448;6.260;2023-05-15T03:17:06;38.15;;;16.80;;
19024;SDS011;9645;51.448;6.260;2023-05-15T03:19:34;37.65;;;16.33;;
19024;SDS011;9645;51.448;6.260;2023-05-15T03:22:02;46.65;;;17.65;;
19024;SDS011;9645;51.448;6.260;2023-05-15T03:24:29;43.78;;;17.45;;
19024;SDS011;9645;51.448;6.260;2023-05-15T03:26:57;48.38;;;16.92;;
19024;SDS011;9645;51.448;6.260;2023-05-15T03:29:24;34.53;;;15.60;;
19024;SDS011;9645;51.448;6.260;2023-05-15T03:31:50;40.28;;;15.88;;
19024;SDS011;9645;51.448;6.260;2023-05-15T03:34:18;36.63;;;15.82;;
19024;SDS011;9645;51.448;6.260;2023-05-15T03:36:45;47.15;;;17.38;;
19024;SDS011;9645;51.448;6.260;2023-05-15T03:39:14;39.97;;;16.73;;
19024;SDS011;9645;51.448;6.260;2023-05-15T03:41:41;45.85;;;17.10;;
19024;SDS011;9645;51.448;6.260;2023-05-15T03:44:08;51.75;;;18.10;;
19024;SDS011;9645;51.448;6.260;2023-05-15T03:46:34;42.30;;;16.45;;
19024;SDS011;9645;51.448;6.260;2023-05-15T03:49:02;42.10;;;16.45;;
19024;SDS011;9645;51.448;6.260;2023-05-15T03:51:29;43.08;;;16.42;;
19024;SDS011;9645;51.448;6.260;2023-05-15T03:53:56;41.97;;;16.90;;
19024;SDS011;9645;51.448;6.260;2023-05-15T03:56:24;38.28;;;15.73;;
19024;SDS011;9645;51.448;6.260;2023-05-15T03:58:52;42.70;;;16.98;;
19024;SDS011;9645;51.448;6.260;2023-05-15T04:01:19;40.63;;;16.88;;
19024;SDS011;9645;51.448;6.260;2023-05-15T04:03:46;41.33;;;16.80;;
19024;SDS011;9645;51.448;6.260;2023-05-15T04:06:12;47.55;;;15.68;;
19024;SDS011;9645;51.448;6.260;2023-05-15T04:08:40;45.50;;;17.25;;
19024;SDS011;9645;51.448;6.260;2023-05-15T04:11:08;57.28;;;15.98;;
19024;SDS011;9645;51.448;6.260;2023-05-15T04:13:37;43.47;;;16.25;;
19024;SDS011;9645;51.448;6.260;2023-05-15T04:16:05;44.22;;;16.67;;
19024;SDS011;9645;51.448;6.260;2023-05-15T04:18:32;45.15;;;17.00;;
19024;SDS011;9645;51.448;6.260;2023-05-15T04:20:59;53.00;;;17.10;;
19024;SDS011;9645;51.448;6.260;2023-05-15T04:23:27;47.40;;;18.45;;
19024;SDS011;9645;51.448;6.260;2023-05-15T04:25:55;47.92;;;19.45;;
19024;SDS011;9645;51.448;6.260;2023-05-15T04:28:22;41.00;;;17.80;;
19024;SDS011;9645;51.448;6.260;2023-05-15T04:30:50;50.70;;;19.25;;
19024;SDS011;9645;51.448;6.260;2023-05-15T04:33:17;52.72;;;20.85;;
19024;SDS011;9645;51.448;6.260;2023-05-15T04:35:44;48.83;;;19.65;;
19024;SDS011;9645;51.448;6.260;2023-05-15T04:38:12;49.25;;;19.70;;
19024;SDS011;9645;51.448;6.260;2023-05-15T04:40:39;48.10;;;20.55;;
19024;SDS011;9645;51.448;6.260;2023-05-15T04:43:06;60.05;;;20.90;;
19024;SDS011;9645;51.448;6.260;2023-05-15T04:45:33;54.28;;;20.60;;
19024;SDS011;9645;51.448;6.260;2023-05-15T04:48:02;53.05;;;21.65;;
19024;SDS011;9645;51.448;6.260;2023-05-15T04:50:29;57.15;;;22.05;;
19024;SDS011;9645;51.448;6.260;2023-05-15T04:52:56;49.28;;;20.10;;
19024;SDS011;9645;51.448;6.260;2023-05-15T04:55:23;47.00;;;21.05;;
19024;SDS011;9645;51.448;6.260;2023-05-15T04:57:51;58.55;;;20.98;;
19024;SDS011;9645;51.448;6.260;2023-05-15T05:00:18;54.20;;;20.13;;
19024;SDS011;9645;51.448;6.260;2023-05-15T05:02:45;52.17;;;21.10;;
19024;SDS011;9645;51.448;6.260;2023-05-15T05:05:13;48.97;;;19.73;;
19024;SDS011;9645;51.448;6.260;2023-05-15T05:07:40;53.10;;;19.70;;
19024;SDS011;9645;51.448;6.260;2023-05-15T05:10:10;49.63;;;19.70;;
19024;SDS011;9645;51.448;6.260;2023-05-15T05:12:37;49.65;;;20.98;;
19024;SDS011;9645;51.448;6.260;2023-05-15T05:15:04;50.15;;;21.52;;
19024;SDS011;9645;51.448;6.260;2023-05-15T05:17:32;52.40;;;20.93;;
19024;SDS011;9645;51.448;6.260;2023-05-15T05:19:59;58.57;;;21.63;;
19024;SDS011;9645;51.448;6.260;2023-05-15T05:22:29;57.13;;;21.23;;
19024;SDS011;9645;51.448;6.260;2023-05-15T05:24:56;57.57;;;21.43;;
19024;SDS011;9645;51.448;6.260;2023-05-15T05:27:23;49.50;;;20.67;;
19024;SDS011;9645;51.448;6.260;2023-05-15T05:29:50;50.67;;;20.53;;
19024;SDS011;9645;51.448;6.260;2023-05-15T05:32:18;68.67;;;21.77;;
19024;SDS011;9645;51.448;6.260;2023-05-15T05:34:45;58.43;;;21.33;;
19024;SDS011;9645;51.448;6.260;2023-05-15T05:37:12;56.60;;;21.43;;
19024;SDS011;9645;51.448;6.260;2023-05-15T05:39:40;61.13;;;24.40;;
19024;SDS011;9645;51.448;6.260;2023-05-15T05:42:07;59.40;;;23.57;;
19024;SDS011;9645;51.448;6.260;2023-05-15T05:44:35;59.10;;;22.37;;
19024;SDS011;9645;51.448;6.260;2023-05-15T05:47:02;53.83;;;24.10;;
19024;SDS011;9645;51.448;6.260;2023-05-15T05:49:29;57.50;;;22.40;;
19024;SDS011;9645;51.448;6.260;2023-05-15T05:51:56;57.93;;;23.63;;
19024;SDS011;9645;51.448;6.260;2023-05-15T05:54:31;59.37;;;22.43;;
19024;SDS011;9645;51.448;6.260;2023-05-15T05:56:59;69.07;;;24.70;;
19024;SDS011;9645;51.448;6.260;2023-05-15T05:59:26;57.60;;;22.23;;
19024;SDS011;9645;51.448;6.260;2023-05-15T06:01:54;101.63;;;26.17;;
19024;SDS011;9645;51.448;6.260;2023-05-15T06:04:21;74.07;;;24.40;;
19024;SDS011;9645;51.448;6.260;2023-05-15T06:06:48;63.93;;;23.40;;
19024;SDS011;9645;51.448;6.260;2023-05-15T06:09:15;65.33;;;23.27;;
19024;SDS011;9645;51.448;6.260;2023-05-15T06:11:42;60.43;;;23.77;;
19024;SDS011;9645;51.448;6.260;2023-05-15T06:14:11;59.10;;;22.30;;
19024;SDS011;9645;51.448;6.260;2023-05-15T06:16:38;63.90;;;22.77;;
19024;SDS011;9645;51.448;6.260;2023-05-15T06:19:05;61.87;;;23.43;;
19024;SDS011;9645;51.448;6.260;2023-05-15T06:21:33;61.40;;;23.70;;
19024;SDS011;9645;51.448;6.260;2023-05-15T06:24:00;56.00;;;24.67;;
19024;SDS011;9645;51.448;6.260;2023-05-15T06:26:28;61.50;;;24.07;;
19024;SDS011;9645;51.448;6.260;2023-05-15T06:28:55;66.93;;;24.73;;
19024;SDS011;9645;51.448;6.260;2023-05-15T06:31:24;68.73;;;24.90;;
19024;SDS011;9645;51.448;6.260;2023-05-15T06:33:51;70.00;;;23.90;;
19024;SDS011;9645;51.448;6.260;2023-05-15T06:36:18;68.43;;;26.00;;
19024;SDS011;9645;51.448;6.260;2023-05-15T06:38:45;65.83;;;23.00;;
19024;SDS011;9645;51.448;6.260;2023-05-15T06:41:12;60.87;;;24.37;;
19024;SDS011;9645;51.448;6.260;2023-05-15T06:43:40;60.10;;;22.87;;
19024;SDS011;9645;51.448;6.260;2023-05-15T06:46:06;145.97;;;44.37;;
19024;SDS011;9645;51.448;6.260;2023-05-15T06:48:35;167.73;;;55.67;;
19024;SDS011;9645;51.448;6.260;2023-05-15T06:51:02;57.37;;;23.30;;
19024;SDS011;9645;51.448;6.260;2023-05-15T06:53:29;55.97;;;24.27;;
19024;SDS011;9645;51.448;6.260;2023-05-15T06:55:57;61.23;;;24.10;;
19024;SDS011;9645;51.448;6.260;2023-05-15T06:58:24;62.43;;;25.33;;
19024;SDS011;9645;51.448;6.260;2023-05-15T07:00:51;57.97;;;24.00;;
19024;SDS011;9645;51.448;6.260;2023-05-15T07:03:18;57.03;;;23.37;;
19024;SDS011;9645;51.448;6.260;2023-05-15T07:05:47;54.87;;;22.80;;
19024;SDS011;9645;51.448;6.260;2023-05-15T07:08:14;54.60;;;22.00;;
19024;SDS011;9645;51.448;6.260;2023-05-15T07:10:40;51.93;;;23.20;;
19024;SDS011;9645;51.448;6.260;2023-05-15T07:13:08;55.23;;;22.13;;
19024;SDS011;9645;51.448;6.260;2023-05-15T07:15:35;55.87;;;22.23;;
19024;SDS011;9645;51.448;6.260;2023-05-15T07:18:02;55.17;;;23.13;;
19024;SDS011;9645;51.448;6.260;2023-05-15T07:20:29;50.90;;;21.87;;
19024;SDS011;9645;51.448;6.260;2023-05-15T07:22:58;53.50;;;22.13;;
19024;SDS011;9645;51.448;6.260;2023-05-15T07:25:25;56.97;;;22.67;;
19024;SDS011;9645;51.448;6.260;2023-05-15T07:27:52;50.60;;;21.57;;
19024;SDS011;9645;51.448;6.260;2023-05-15T07:30:19;44.43;;;20.63;;
19024;SDS011;9645;51.448;6.260;2023-05-15T07:32:46;68.07;;;23.10;;
19024;SDS011;9645;51.448;6.260;2023-05-15T07:35:14;49.20;;;21.53;;
19024;SDS011;9645;51.448;6.260;2023-05-15T07:37:42;50.37;;;21.93;;
19024;SDS011;9645;51.448;6.260;2023-05-15T07:40:12;56.47;;;21.40;;
19024;SDS011;9645;51.448;6.260;2023-05-15T07:42:41;40.03;;;19.10;;
19024;SDS011;9645;51.448;6.260;2023-05-15T07:45:09;56.97;;;20.80;;
19024;SDS011;9645;51.448;6.260;2023-05-15T07:47:36;43.70;;;19.40;;
19024;SDS011;9645;51.448;6.260;2023-05-15T07:50:04;44.23;;;20.60;;
19024;SDS011;9645;51.448;6.260;2023-05-15T07:52:32;45.93;;;19.83;;
19024;SDS011;9645;51.448;6.260;2023-05-15T07:54:59;46.37;;;21.00;;
19024;SDS011;9645;51.448;6.260;2023-05-15T07:57:28;45.83;;;20.63;;
19024;SDS011;9645;51.448;6.260;2023-05-15T07:59:56;39.20;;;18.80;;
19024;SDS011;9645;51.448;6.260;2023-05-15T08:02:23;41.57;;;19.07;;
19024;SDS011;9645;51.448;6.260;2023-05-15T08:04:50;40.63;;;17.90;;
19024;SDS011;9645;51.448;6.260;2023-05-15T08:07:18;40.97;;;19.90;;
19024;SDS011;9645;51.448;6.260;2023-05-15T08:09:45;48.20;;;21.43;;
19024;SDS011;9645;51.448;6.260;2023-05-15T08:12:15;56.73;;;22.13;;
19024;SDS011;9645;51.448;6.260;2023-05-15T08:14:47;52.00;;;23.30;;
19024;SDS011;9645;51.448;6.260;2023-05-15T08:17:14;48.47;;;21.43;;
19024;SDS011;9645;51.448;6.260;2023-05-15T08:19:41;45.30;;;21.40;;
19024;SDS011;9645;51.448;6.260;2023-05-15T08:22:09;45.10;;;18.40;;
19024;SDS011;9645;51.448;6.260;2023-05-15T08:24:36;44.33;;;18.70;;
19024;SDS011;9645;51.448;6.260;2023-05-15T08:27:03;38.70;;;18.50;;
19024;SDS011;9645;51.448;6.260;2023-05-15T08:29:31;49.23;;;18.37;;
19024;SDS011;9645;51.448;6.260;2023-05-15T08:32:01;34.43;;;18.63;;
19024;SDS011;9645;51.448;6.260;2023-05-15T08:34:31;43.27;;;20.30;;
19024;SDS011;9645;51.448;6.260;2023-05-15T08:36:58;45.23;;;19.80;;
19024;SDS011;9645;51.448;6.260;2023-05-15T08:39:26;37.60;;;18.30;;
19024;SDS011;9645;51.448;6.260;2023-05-15T08:41:55;41.50;;;19.40;;
19024;SDS011;9645;51.448;6.260;2023-05-15T08:44:22;40.77;;;18.73;;
19024;SDS011;9645;51.448;6.260;2023-05-15T08:46:50;41.97;;;20.60;;
19024;SDS011;9645;51.448;6.260;2023-05-15T08:49:24;36.20;;;20.40;;
19024;SDS011;9645;51.448;6.260;2023-05-15T08:52:01;43.63;;;19.50;;
19024;SDS011;9645;51.448;6.260;2023-05-15T08:54:29;43.60;;;19.60;;
19024;SDS011;9645;51.448;6.260;2023-05-15T08:56:57;39.27;;;18.63;;
19024;SDS011;9645;51.448;6.260;2023-05-15T08:59:24;36.83;;;18.47;;
19024;SDS011;9645;51.448;6.260;2023-05-15T09:01:52;48.00;;;22.20;;
19024;SDS011;9645;51.448;6.260;2023-05-15T09:04:21;41.53;;;19.40;;
19024;SDS011;9645;51.448;6.260;2023-05-15T09:06:48;36.10;;;18.33;;
19024;SDS011;9645;51.448;6.260;2023-05-15T09:09:15;34.13;;;18.03;;
19024;SDS011;9645;51.448;6.260;2023-05-15T09:11:46;34.17;;;18.07;;
19024;SDS011;9645;51.448;6.260;2023-05-15T09:14:13;35.23;;;18.03;;
19024;SDS011;9645;51.448;6.260;2023-05-15T09:16:41;37.40;;;19.10;;
19024;SDS011;9645;51.448;6.260;2023-05-15T09:19:08;43.93;;;20.37;;
19024;SDS011;9645;51.448;6.260;2023-05-15T09:21:37;40.07;;;19.80;;
19024;SDS011;9645;51.448;6.260;2023-05-15T09:24:18;35.53;;;18.87;;
19024;SDS011;9645;51.448;6.260;2023-05-15T09:27:00;37.23;;;20.40;;
19024;SDS011;9645;51.448;6.260;2023-05-15T09:29:28;35.27;;;19.27;;
19024;SDS011;9645;51.448;6.260;2023-05-15T09:32:01;35.70;;;18.77;;
19024;SDS011;9645;51.448;6.260;2023-05-15T09:34:29;32.23;;;17.70;;
19024;SDS011;9645;51.448;6.260;2023-05-15T09:37:02;38.03;;;19.97;;
19024;SDS011;9645;51.448;6.260;2023-05-15T09:39:31;37.97;;;20.70;;
19024;SDS011;9645;51.448;6.260;2023-05-15T09:42:06;37.77;;;20.53;;
19024;SDS011;9645;51.448;6.260;2023-05-15T09:44:35;39.40;;;19.20;;
19024;SDS011;9645;51.448;6.260;2023-05-15T09:47:06;38.30;;;20.37;;
19024;SDS011;9645;51.448;6.260;2023-05-15T09:49:34;44.13;;;20.27;;
19024;SDS011;9645;51.448;6.260;2023-05-15T09:52:04;31.80;;;17.63;;
19024;SDS011;9645;51.448;6.260;2023-05-15T09:54:37;34.57;;;18.80;;
19024;SDS011;9645;51.448;6.260;2023-05-15T09:57:06;40.97;;;19.43;;
19024;SDS011;9645;51.448;6.260;2023-05-15T09:59:34;33.20;;;18.63;;
19024;SDS011;9645;51.448;6.260;2023-05-15T10:02:01;39.03;;;19.80;;
19024;SDS011;9645;51.448;6.260;2023-05-15T10:04:33;35.40;;;18.50;;
19024;SDS011;9645;51.448;6.260;2023-05-15T10:07:00;31.97;;;18.10;;
19024;SDS011;9645;51.448;6.260;2023-05-15T10:09:30;37.83;;;19.70;;
19024;SDS011;9645;51.448;6.260;2023-05-15T10:11:59;30.03;;;17.27;;
19024;SDS011;9645;51.448;6.260;2023-05-15T10:14:32;30.50;;;17.77;;
19024;SDS011;9645;51.448;6.260;2023-05-15T10:16:59;23.47;;;14.30;;
19024;SDS011;9645;51.448;6.260;2023-05-15T10:19:26;20.40;;;11.30;;
19024;SDS011;9645;51.448;6.260;2023-05-15T10:21:56;32.67;;;15.40;;
19024;SDS011;9645;51.448;6.260;2023-05-15T10:24:26;36.53;;;17.00;;
19024;SDS011;9645;51.448;6.260;2023-05-15T10:26:59;29.10;;;15.30;;
19024;SDS011;9645;51.448;6.260;2023-05-15T10:29:32;27.77;;;15.23;;
19024;SDS011;9645;51.448;6.260;2023-05-15T10:32:01;27.80;;;15.00;;
19024;SDS011;9645;51.448;6.260;2023-05-15T10:34:30;21.43;;;12.37;;
19024;SDS011;9645;51.448;6.260;2023-05-15T10:36:58;23.77;;;13.50;;
19024;SDS011;9645;51.448;6.260;2023-05-15T10:39:26;25.27;;;15.60;;
19024;SDS011;9645;51.448;6.260;2023-05-15T10:41:55;26.10;;;17.17;;
19024;SDS011;9645;51.448;6.260;2023-05-15T10:44:24;27.67;;;16.00;;
19024;SDS011;9645;51.448;6.260;2023-05-15T10:46:51;26.50;;;14.57;;
19024;SDS011;9645;51.448;6.260;2023-05-15T10:49:19;25.03;;;14.00;;
19024;SDS011;9645;51.448;6.260;2023-05-15T10:51:46;28.20;;;14.10;;
19024;SDS011;9645;51.448;6.260;2023-05-15T10:54:13;29.70;;;14.90;;
19024;SDS011;9645;51.448;6.260;2023-05-15T10:56:41;33.57;;;15.50;;
19024;SDS011;9645;51.448;6.260;2023-05-15T10:59:10;31.10;;;14.70;;
19024;SDS011;9645;51.448;6.260;2023-05-15T11:01:37;26.03;;;14.57;;
19024;SDS011;9645;51.448;6.260;2023-05-15T11:04:06;27.97;;;15.90;;
19024;SDS011;9645;51.448;6.260;2023-05-15T11:06:34;32.80;;;13.73;;
19024;SDS011;9645;51.448;6.260;2023-05-15T11:12:04;26.33;;;15.93;;
19024;SDS011;9645;51.448;6.260;2023-05-15T11:14:35;27.40;;;16.70;;
19024;SDS011;9645;51.448;6.260;2023-05-15T11:17:05;29.83;;;17.23;;
19024;SDS011;9645;51.448;6.260;2023-05-15T11:22:27;24.07;;;15.60;;
19024;SDS011;9645;51.448;6.260;2023-05-15T11:25:00;26.60;;;15.70;;
19024;SDS011;9645;51.448;6.260;2023-05-15T11:27:29;58.07;;;17.07;;
19024;SDS011;9645;51.448;6.260;2023-05-15T11:32:50;38.97;;;17.60;;
19024;SDS011;9645;51.448;6.260;2023-05-15T11:35:21;28.97;;;16.13;;
19024;SDS011;9645;51.448;6.260;2023-05-15T11:37:51;25.80;;;14.80;;
19024;SDS011;9645;51.448;6.260;2023-05-15T11:40:20;23.77;;;13.67;;
19024;SDS011;9645;51.448;6.260;2023-05-15T11:42:59;23.30;;;15.17;;
19024;SDS011;9645;51.448;6.260;2023-05-15T11:45:34;33.63;;;16.30;;
19024;SDS011;9645;51.448;6.260;2023-05-15T11:48:02;28.57;;;17.47;;
19024;SDS011;9645;51.448;6.260;2023-05-15T11:50:31;27.27;;;18.33;;
19024;SDS011;9645;51.448;6.260;2023-05-15T11:53:03;28.33;;;17.57;;
19024;SDS011;9645;51.448;6.260;2023-05-15T11:55:32;33.63;;;18.33;;
19024;SDS011;9645;51.448;6.260;2023-05-15T11:58:01;31.03;;;18.60;;
19024;SDS011;9645;51.448;6.260;2023-05-15T12:00:29;29.03;;;16.40;;
19024;SDS011;9645;51.448;6.260;2023-05-15T12:02:58;28.50;;;15.90;;
19024;SDS011;9645;51.448;6.260;2023-05-15T12:05:25;28.33;;;17.43;;
19024;SDS011;9645;51.448;6.260;2023-05-15T12:07:52;37.50;;;15.57;;
19024;SDS011;9645;51.448;6.260;2023-05-15T12:10:19;34.37;;;17.10;;
19024;SDS011;9645;51.448;6.260;2023-05-15T12:12:46;29.17;;;18.13;;
19024;SDS011;9645;51.448;6.260;2023-05-15T12:15:15;29.90;;;17.50;;
19024;SDS011;9645;51.448;6.260;2023-05-15T12:17:44;26.40;;;16.90;;
19024;SDS011;9645;51.448;6.260;2023-05-15T12:20:14;35.80;;;17.00;;
19024;SDS011;9645;51.448;6.260;2023-05-15T12:22:42;28.97;;;16.60;;
19024;SDS011;9645;51.448;6.260;2023-05-15T12:25:10;25.00;;;15.30;;
19024;SDS011;9645;51.448;6.260;2023-05-15T12:27:38;23.20;;;14.07;;
19024;SDS011;9645;51.448;6.260;2023-05-15T12:30:06;28.50;;;16.73;;
19024;SDS011;9645;51.448;6.260;2023-05-15T12:32:35;35.70;;;19.70;;
19024;SDS011;9645;51.448;6.260;2023-05-15T12:35:03;37.37;;;21.40;;
19024;SDS011;9645;51.448;6.260;2023-05-15T12:37:32;33.33;;;19.67;;
19024;SDS011;9645;51.448;6.260;2023-05-15T12:40:01;40.60;;;21.80;;
19024;SDS011;9645;51.448;6.260;2023-05-15T12:42:36;36.30;;;20.60;;
19024;SDS011;9645;51.448;6.260;2023-05-15T12:45:09;34.43;;;19.23;;
19024;SDS011;9645;51.448;6.260;2023-05-15T12:47:38;35.30;;;19.77;;
19024;SDS011;9645;51.448;6.260;2023-05-15T12:50:11;31.33;;;19.47;;
19024;SDS011;9645;51.448;6.260;2023-05-15T12:52:46;38.33;;;19.50;;
19024;SDS011;9645;51.448;6.260;2023-05-15T12:55:16;31.90;;;18.50;;
19024;SDS011;9645;51.448;6.260;2023-05-15T12:57:43;28.13;;;16.10;;
19024;SDS011;9645;51.448;6.260;2023-05-15T13:00:11;30.70;;;17.33;;
19024;SDS011;9645;51.448;6.260;2023-05-15T13:02:41;34.90;;;18.10;;
19024;SDS011;9645;51.448;6.260;2023-05-15T13:05:09;31.67;;;18.10;;
19024;SDS011;9645;51.448;6.260;2023-05-15T13:07:37;34.70;;;16.90;;
19024;SDS011;9645;51.448;6.260;2023-05-15T13:10:08;32.30;;;17.97;;
19024;SDS011;9645;51.448;6.260;2023-05-15T13:12:35;30.10;;;17.40;;
19024;SDS011;9645;51.448;6.260;2023-05-15T13:15:03;35.43;;;18.20;;
19024;SDS011;9645;51.448;6.260;2023-05-15T13:17:31;31.27;;;16.27;;
19024;SDS011;9645;51.448;6.260;2023-05-15T13:19:59;35.83;;;17.93;;
19024;SDS011;9645;51.448;6.260;2023-05-15T13:22:27;32.37;;;18.27;;
19024;SDS011;9645;51.448;6.260;2023-05-15T13:24:55;38.03;;;18.47;;
19024;SDS011;9645;51.448;6.260;2023-05-15T13:27:23;31.67;;;18.40;;
19024;SDS011;9645;51.448;6.260;2023-05-15T13:29:51;27.90;;;16.80;;
19024;SDS011;9645;51.448;6.260;2023-05-15T13:32:18;30.87;;;17.70;;
19024;SDS011;9645;51.448;6.260;2023-05-15T13:34:45;38.80;;;16.80;;
19024;SDS011;9645;51.448;6.260;2023-05-15T13:37:13;29.73;;;17.27;;
19024;SDS011;9645;51.448;6.260;2023-05-15T13:39:40;36.30;;;20.17;;
19024;SDS011;9645;51.448;6.260;2023-05-15T13:42:07;36.23;;;18.57;;
19024;SDS011;9645;51.448;6.260;2023-05-15T13:44:36;54.00;;;20.57;;
19024;SDS011;9645;51.448;6.260;2023-05-15T13:47:03;35.40;;;20.03;;
19024;SDS011;9645;51.448;6.260;2023-05-15T13:49:30;34.13;;;18.17;;
19024;SDS011;9645;51.448;6.260;2023-05-15T13:51:57;33.20;;;19.07;;
19024;SDS011;9645;51.448;6.260;2023-05-15T13:54:24;34.93;;;18.03;;
19024;SDS011;9645;51.448;6.260;2023-05-15T13:56:52;42.20;;;21.07;;
19024;SDS011;9645;51.448;6.260;2023-05-15T13:59:19;38.00;;;20.90;;
19024;SDS011;9645;51.448;6.260;2023-05-15T14:01:47;39.83;;;22.10;;
19024;SDS011;9645;51.448;6.260;2023-05-15T14:04:14;40.27;;;20.73;;
19024;SDS011;9645;51.448;6.260;2023-05-15T14:06:41;44.73;;;21.40;;
19024;SDS011;9645;51.448;6.260;2023-05-15T14:09:09;39.23;;;21.37;;
19024;SDS011;9645;51.448;6.260;2023-05-15T14:11:36;41.10;;;21.40;;
19024;SDS011;9645;51.448;6.260;2023-05-15T14:14:02;46.30;;;20.50;;
19024;SDS011;9645;51.448;6.260;2023-05-15T14:16:30;46.30;;;21.47;;
19024;SDS011;9645;51.448;6.260;2023-05-15T14:18:58;41.13;;;21.63;;
19024;SDS011;9645;51.448;6.260;2023-05-15T14:21:25;41.90;;;21.80;;
19024;SDS011;9645;51.448;6.260;2023-05-15T14:23:52;39.47;;;20.77;;
19024;SDS011;9645;51.448;6.260;2023-05-15T14:26:20;34.93;;;18.40;;
19024;SDS011;9645;51.448;6.260;2023-05-15T14:28:47;42.53;;;21.27;;
19024;SDS011;9645;51.448;6.260;2023-05-15T14:31:14;47.70;;;20.67;;
19024;SDS011;9645;51.448;6.260;2023-05-15T14:33:42;42.03;;;20.43;;
19024;SDS011;9645;51.448;6.260;2023-05-15T14:36:10;48.60;;;21.40;;
19024;SDS011;9645;51.448;6.260;2023-05-15T14:38:37;71.87;;;20.27;;
19024;SDS011;9645;51.448;6.260;2023-05-15T14:41:04;41.37;;;22.47;;
19024;SDS011;9645;51.448;6.260;2023-05-15T14:43:31;46.63;;;21.00;;
19024;SDS011;9645;51.448;6.260;2023-05-15T14:45:58;45.87;;;22.43;;
19024;SDS011;9645;51.448;6.260;2023-05-15T14:48:26;48.87;;;20.83;;